createdAt,value
2022-08-23T00:02:26.788Z,17.73
2022-08-23T00:05:08.184Z,17.83
2022-08-23T00:07:41.105Z,17.73
2022-08-23T00:10:11.833Z,17.80
2022-08-23T00:12:40.055Z,17.86
2022-08-23T00:15:11.057Z,17.63
2022-08-23T00:17:40.124Z,17.68
2022-08-23T00:20:10.190Z,17.48
2022-08-23T00:22:40.383Z,17.74
2022-08-23T00:25:13.533Z,17.82
2022-08-23T00:27:41.741Z,17.74
2022-08-23T00:30:12.644Z,17.49
2022-08-23T00:32:41.513Z,17.62
2022-08-23T00:35:11.677Z,17.85
2022-08-23T00:37:39.483Z,17.94
2022-08-23T00:40:11.396Z,17.75
2022-08-23T00:43:10.231Z,17.64
2022-08-23T00:46:03.115Z,17.67
2022-08-23T00:48:32.991Z,17.91
2022-08-23T00:51:10.270Z,17.88
2022-08-23T00:53:43.491Z,17.93
2022-08-23T00:56:13.810Z,18.00
2022-08-23T00:58:43.119Z,17.96
2022-08-23T01:01:10.844Z,17.95
2022-08-23T01:03:42.804Z,17.93
2022-08-23T01:06:31.087Z,17.87
2022-08-23T01:09:03.254Z,17.73
2022-08-23T01:11:38.264Z,17.86
2022-08-23T01:14:18.175Z,17.73
2022-08-23T01:17:09.338Z,17.66
2022-08-23T01:19:47.609Z,17.46
2022-08-23T01:22:30.603Z,17.57
2022-08-23T01:25:07.345Z,17.43
2022-08-23T01:27:38.787Z,17.31
2022-08-23T01:30:12.158Z,17.45
2022-08-23T01:32:47.232Z,17.36
2022-08-23T01:35:17.088Z,17.41
2022-08-23T01:37:46.085Z,17.32
2022-08-23T01:40:14.900Z,17.29
2022-08-23T01:42:42.959Z,17.42
2022-08-23T01:45:13.969Z,17.25
2022-08-23T01:47:42.384Z,17.19
2022-08-23T01:50:13.269Z,17.26
2022-08-23T01:52:46.663Z,16.99
2022-08-23T01:55:15.643Z,17.11
2022-08-23T01:57:47.780Z,17.20
2022-08-23T02:00:18.785Z,17.13
2022-08-23T02:02:47.333Z,17.26
2022-08-23T02:05:17.486Z,17.16
2022-08-23T02:07:48.608Z,17.22
2022-08-23T02:10:18.124Z,17.02
2022-08-23T02:12:47.034Z,17.06
2022-08-23T02:15:35.483Z,17.25
2022-08-23T02:18:03.227Z,17.30
2022-08-23T02:20:31.307Z,17.63
2022-08-23T02:22:59.200Z,17.62
2022-08-23T02:25:27.510Z,17.57
2022-08-23T02:27:55.374Z,17.42
2022-08-23T02:30:23.264Z,17.69
2022-08-23T02:32:51.483Z,17.75
2022-08-23T02:35:19.618Z,17.63
2022-08-23T02:37:47.419Z,17.44
2022-08-23T02:40:16.926Z,17.53
2022-08-23T02:42:44.690Z,17.74
2022-08-23T02:45:13.479Z,17.89
2022-08-23T02:47:45.370Z,17.83
2022-08-23T02:50:13.764Z,17.70
2022-08-23T02:52:41.556Z,17.91
2022-08-23T02:55:10.244Z,17.86
2022-08-23T02:57:40.311Z,17.99
2022-08-23T03:00:14.465Z,18.06
2022-08-23T03:02:43.261Z,18.17
2022-08-23T03:05:13.451Z,18.21
2022-08-23T03:07:42.022Z,18.34
2022-08-23T03:10:11.122Z,18.33
2022-08-23T03:12:39.814Z,18.34
2022-08-23T03:15:08.711Z,18.41
2022-08-23T03:17:36.583Z,18.44
2022-08-23T03:20:07.051Z,18.46
2022-08-23T03:22:35.014Z,18.56
2022-08-23T03:25:02.848Z,18.62
2022-08-23T03:27:33.215Z,18.76
2022-08-23T03:30:09.025Z,18.82
2022-08-23T03:32:49.050Z,18.96
2022-08-23T03:35:17.788Z,19.03
2022-08-23T03:37:46.700Z,19.04
2022-08-23T03:40:15.485Z,19.19
2022-08-23T03:42:46.367Z,19.36
2022-08-23T03:45:17.086Z,19.45
2022-08-23T03:47:47.272Z,19.59
2022-08-23T03:53:01.504Z,19.93
2022-08-23T03:55:29.867Z,20.15
2022-08-23T03:57:58.079Z,20.29
2022-08-23T04:00:26.162Z,20.44
2022-08-23T04:02:54.654Z,20.59
2022-08-23T04:05:23.842Z,20.70
2022-08-23T04:07:52.214Z,20.99
2022-08-23T04:10:21.530Z,21.20
2022-08-23T04:12:50.196Z,21.41
2022-08-23T04:15:19.935Z,21.56
2022-08-23T04:17:48.475Z,21.74
2022-08-23T04:20:16.933Z,21.91
2022-08-23T04:22:52.936Z,22.17
2022-08-23T04:25:34.295Z,22.42
2022-08-23T04:28:04.161Z,22.66
2022-08-23T04:30:33.759Z,23.00
2022-08-23T04:33:02.052Z,23.23
2022-08-23T04:35:30.655Z,23.34
2022-08-23T04:37:58.852Z,23.51
2022-08-23T04:40:45.559Z,23.62
2022-08-23T04:43:14.381Z,23.65
2022-08-23T04:45:42.504Z,23.82
2022-08-23T04:48:12.186Z,23.93
2022-08-23T04:50:42.806Z,23.95
2022-08-23T04:53:12.180Z,24.10
2022-08-23T04:55:41.202Z,24.16
2022-08-23T04:58:09.226Z,24.26
2022-08-23T05:00:38.414Z,24.53
2022-08-23T05:03:06.967Z,24.70
2022-08-23T05:05:34.926Z,24.95
2022-08-23T05:08:03.368Z,25.09
2022-08-23T05:10:31.787Z,25.35
2022-08-23T05:13:02.117Z,25.55
2022-08-23T05:15:30.038Z,25.64
2022-08-23T05:17:59.630Z,25.75
2022-08-23T05:20:28.284Z,26.00
2022-08-23T05:22:56.115Z,26.11
2022-08-23T05:25:24.869Z,26.16
2022-08-23T05:27:57.120Z,26.29
2022-08-23T05:30:25.347Z,26.38
2022-08-23T05:32:55.114Z,26.54
2022-08-23T05:35:22.925Z,26.87
2022-08-23T05:37:51.033Z,27.07
2022-08-23T05:40:19.021Z,27.29
2022-08-23T05:42:49.525Z,27.60
2022-08-23T05:45:21.152Z,27.83
2022-08-23T05:47:50.271Z,28.14
2022-08-23T05:50:19.482Z,28.67
2022-08-23T05:52:51.102Z,29.11
2022-08-23T05:55:20.132Z,29.43
2022-08-23T05:57:51.889Z,29.72
2022-08-23T06:00:21.362Z,29.74
2022-08-23T06:02:56.606Z,30.05
2022-08-23T06:05:24.537Z,30.24
2022-08-23T06:07:52.319Z,30.35
2022-08-23T06:10:21.819Z,30.41
2022-08-23T06:12:50.511Z,30.74
2022-08-23T06:15:18.472Z,30.99
2022-08-23T06:17:49.288Z,31.27
2022-08-23T06:20:17.387Z,31.53
2022-08-23T06:22:48.124Z,31.41
2022-08-23T06:25:16.020Z,32.18
2022-08-23T06:27:44.106Z,32.71
2022-08-23T06:30:13.410Z,33.14
2022-08-23T06:32:46.892Z,33.00
2022-08-23T06:35:37.604Z,33.42
2022-08-23T06:38:07.370Z,33.46
2022-08-23T06:40:42.194Z,33.81
2022-08-23T06:43:11.791Z,33.50
2022-08-23T06:45:48.417Z,34.15
2022-08-23T06:48:26.690Z,34.64
2022-08-23T06:50:54.942Z,34.57
2022-08-23T06:53:24.748Z,34.34
2022-08-23T06:55:55.131Z,34.02
2022-08-23T06:58:23.256Z,34.25
2022-08-23T07:00:54.270Z,34.48
2022-08-23T07:03:25.703Z,34.89
2022-08-23T07:05:54.692Z,35.43
2022-08-23T07:08:22.716Z,35.91
2022-08-23T07:10:50.966Z,36.00
2022-08-23T07:13:19.094Z,36.45
2022-08-23T07:15:49.997Z,36.76
2022-08-23T07:18:18.860Z,36.91
2022-08-23T07:20:46.715Z,36.49
2022-08-23T07:23:15.899Z,37.09
2022-08-23T07:25:44.233Z,37.36
2022-08-23T07:28:14.601Z,37.23
2022-08-23T07:30:45.323Z,36.43
2022-08-23T07:33:14.150Z,37.95
2022-08-23T07:35:54.120Z,38.59
2022-08-23T07:38:22.491Z,38.77
2022-08-23T07:40:59.009Z,39.17
2022-08-23T07:43:27.190Z,38.52
2022-08-23T07:45:56.267Z,37.73
2022-08-23T07:48:50.372Z,37.60
2022-08-23T07:51:15.026Z,37.85
2022-08-23T07:53:45.877Z,37.32
2022-08-23T07:56:17.649Z,37.11
2022-08-23T07:58:53.210Z,37.41
2022-08-23T08:01:27.938Z,36.76
2022-08-23T08:03:58.398Z,36.61
2022-08-23T08:06:30.770Z,36.75
2022-08-23T08:09:00.174Z,36.59
2022-08-23T08:11:34.514Z,36.44
2022-08-23T08:14:07.648Z,36.26
2022-08-23T08:16:39.610Z,36.39
2022-08-23T08:19:10.907Z,36.29
2022-08-23T08:21:45.681Z,36.35
2022-08-23T08:24:16.877Z,35.96
2022-08-23T08:26:46.164Z,36.40
2022-08-23T08:29:15.274Z,36.38
2022-08-23T08:31:47.318Z,36.31
2022-08-23T08:34:18.512Z,35.82
2022-08-23T08:36:50.686Z,35.38
2022-08-23T08:39:27.350Z,35.19
2022-08-23T08:42:09.364Z,34.81
2022-08-23T08:45:09.889Z,35.62
2022-08-23T08:47:46.969Z,35.38
2022-08-23T08:50:24.545Z,35.13
2022-08-23T08:53:02.505Z,35.35
2022-08-23T08:55:39.268Z,35.13
2022-08-23T08:58:14.583Z,35.13
2022-08-23T09:00:43.803Z,35.36
2022-08-23T09:03:15.348Z,35.21
2022-08-23T09:05:51.035Z,35.32
2022-08-23T09:08:24.848Z,35.28
2022-08-23T09:11:14.283Z,35.02
2022-08-23T09:14:24.302Z,36.06
2022-08-23T09:17:05.547Z,36.15
2022-08-23T09:19:37.782Z,36.26
2022-08-23T09:22:13.813Z,36.09
2022-08-23T09:24:42.775Z,36.58
2022-08-23T09:27:11.814Z,36.05
2022-08-23T09:29:51.308Z,36.08
2022-08-23T09:32:33.362Z,36.15
2022-08-23T09:35:21.433Z,36.29
2022-08-23T09:38:20.577Z,36.34
2022-08-23T09:40:51.043Z,37.16
2022-08-23T09:43:28.025Z,37.65
2022-08-23T09:46:01.437Z,37.72
2022-08-23T09:48:36.736Z,37.89
2022-08-23T09:51:37.704Z,37.63
2022-08-23T09:54:29.069Z,37.54
2022-08-23T09:57:06.426Z,37.32
2022-08-23T09:59:46.216Z,38.65
2022-08-23T10:02:28.769Z,38.08
2022-08-23T10:04:59.976Z,37.73
2022-08-23T10:07:34.203Z,37.75
2022-08-23T10:10:31.874Z,38.32
2022-08-23T10:13:02.348Z,39.33
2022-08-23T10:15:59.570Z,39.10
2022-08-23T10:18:51.455Z,38.55
2022-08-23T10:21:26.230Z,39.09
2022-08-23T10:24:10.717Z,38.78
2022-08-23T10:27:00.498Z,38.75
2022-08-23T10:29:42.645Z,38.65
2022-08-23T10:32:35.861Z,38.71
2022-08-23T10:35:26.186Z,37.08
2022-08-23T10:38:31.060Z,37.82
2022-08-23T10:41:21.333Z,37.22
2022-08-23T10:43:50.695Z,38.40
2022-08-23T10:46:22.974Z,38.55
2022-08-23T10:48:59.668Z,38.60
2022-08-23T10:51:36.724Z,38.84
2022-08-23T10:54:34.841Z,37.73
2022-08-23T10:57:06.670Z,39.18
2022-08-23T10:59:39.278Z,39.84
2022-08-23T11:02:14.741Z,39.52
2022-08-23T11:05:03.767Z,39.51
2022-08-23T11:07:34.696Z,38.15
2022-08-23T11:10:06.354Z,38.49
2022-08-23T11:13:00.654Z,39.16
2022-08-23T11:15:46.587Z,38.66
2022-08-23T11:18:31.319Z,38.18
2022-08-23T11:21:06.923Z,38.72
2022-08-23T11:23:43.363Z,38.22
2022-08-23T11:26:56.736Z,37.23
2022-08-23T11:29:24.938Z,36.76
2022-08-23T11:31:57.150Z,38.78
2022-08-23T11:34:45.356Z,37.21
2022-08-23T11:37:19.651Z,36.86
2022-08-23T11:39:59.859Z,37.12
2022-08-23T11:42:40.699Z,35.69
2022-08-23T11:45:30.736Z,36.03
2022-08-23T11:48:14.039Z,37.00
2022-08-23T11:51:04.525Z,36.27
2022-08-23T11:53:47.641Z,36.54
2022-08-23T11:56:30.553Z,35.49
2022-08-23T11:59:18.510Z,36.61
2022-08-23T12:01:47.287Z,37.01
2022-08-23T12:04:37.865Z,36.14
2022-08-23T12:07:12.996Z,35.84
2022-08-23T12:09:41.036Z,35.66
2022-08-23T12:12:24.908Z,34.81
2022-08-23T12:15:03.039Z,35.92
2022-08-23T12:17:34.086Z,35.25
2022-08-23T12:20:27.198Z,35.60
2022-08-23T12:23:02.803Z,35.82
2022-08-23T12:25:32.321Z,34.33
2022-08-23T12:28:30.231Z,34.21
2022-08-23T12:31:15.943Z,35.69
2022-08-23T12:34:07.531Z,35.63
2022-08-23T12:37:12.079Z,33.97
2022-08-23T12:39:49.092Z,34.53
2022-08-23T12:42:25.480Z,35.05
2022-08-23T12:45:21.109Z,34.26
2022-08-23T12:47:59.272Z,33.55
2022-08-23T12:50:33.374Z,34.19
2022-08-23T12:53:06.278Z,34.07
2022-08-23T12:55:38.125Z,34.13
2022-08-23T12:58:08.481Z,34.01
2022-08-23T13:00:43.483Z,34.71
2022-08-23T13:03:24.100Z,34.14
2022-08-23T13:06:05.991Z,34.07
2022-08-23T13:08:38.536Z,34.25
2022-08-23T13:11:08.847Z,33.68
2022-08-23T13:13:42.386Z,33.51
2022-08-23T13:16:38.484Z,34.20
2022-08-23T13:19:25.234Z,34.03
2022-08-23T13:22:20.476Z,34.24
2022-08-23T13:25:27.381Z,33.52
2022-08-23T13:27:57.299Z,33.48
2022-08-23T13:30:32.163Z,33.31
2022-08-23T13:33:09.048Z,33.14
2022-08-23T13:35:49.613Z,33.67
2022-08-23T13:38:22.347Z,33.19
2022-08-23T13:41:00.720Z,33.02
2022-08-23T13:43:40.341Z,32.82
2022-08-23T13:46:28.353Z,32.86
2022-08-23T13:49:29.521Z,32.85
2022-08-23T13:52:18.701Z,32.88
2022-08-23T13:54:50.851Z,32.62
2022-08-23T13:57:22.160Z,32.81
2022-08-23T13:59:51.767Z,32.68
2022-08-23T14:02:21.759Z,32.51
2022-08-23T14:04:50.141Z,33.47
2022-08-23T14:07:18.515Z,32.66
2022-08-23T14:09:46.507Z,32.17
2022-08-23T14:12:22.010Z,32.52
2022-08-23T14:14:50.586Z,32.07
2022-08-23T14:17:20.502Z,32.52
2022-08-23T14:22:37.393Z,32.95
2022-08-23T14:25:07.019Z,32.20
2022-08-23T14:27:35.763Z,32.33
2022-08-23T14:30:06.107Z,32.31
2022-08-23T14:32:34.017Z,31.80
2022-08-23T14:35:01.882Z,32.15
2022-08-23T14:40:18.795Z,31.78
2022-08-23T14:42:48.412Z,31.92
2022-08-23T14:45:17.808Z,31.97
2022-08-23T14:47:45.634Z,31.66
2022-08-23T14:50:15.218Z,31.78
2022-08-23T14:55:33.031Z,31.52
2022-08-23T14:58:01.115Z,31.27
2022-08-23T15:00:28.998Z,30.98
2022-08-23T15:02:57.606Z,30.57
2022-08-23T15:05:25.399Z,30.64
2022-08-23T15:07:53.123Z,30.68
2022-08-23T15:13:27.030Z,30.13
2022-08-23T15:15:57.953Z,30.27
2022-08-23T15:18:26.116Z,30.33
2022-08-23T15:20:56.548Z,30.18
2022-08-23T15:23:24.776Z,29.81
2022-08-23T15:25:52.858Z,29.58
2022-08-23T15:28:22.475Z,29.54
2022-08-23T15:30:51.797Z,29.51
2022-08-23T15:36:08.713Z,29.18
2022-08-23T15:38:37.423Z,28.37
2022-08-23T15:41:06.233Z,28.57
2022-08-23T15:43:36.348Z,28.51
2022-08-23T15:46:07.100Z,28.45
2022-08-23T15:48:51.207Z,28.48
2022-08-23T15:51:19.864Z,28.09
2022-08-23T15:53:48.488Z,28.11
2022-08-23T15:56:20.455Z,27.86
2022-08-23T15:58:49.034Z,27.80
2022-08-23T16:01:21.712Z,27.85
2022-08-23T16:03:52.411Z,27.93
2022-08-23T16:06:20.568Z,28.16
2022-08-23T16:08:52.747Z,28.15
2022-08-23T16:11:21.741Z,28.24
2022-08-23T16:13:53.667Z,28.20
2022-08-23T16:16:32.402Z,28.26
2022-08-23T16:19:01.000Z,27.16
2022-08-23T16:21:30.712Z,27.21
2022-08-23T16:23:59.208Z,27.25
2022-08-23T16:26:34.895Z,27.47
2022-08-23T16:29:09.181Z,27.24
2022-08-23T16:31:40.093Z,26.46
2022-08-23T16:34:11.711Z,26.51
2022-08-23T16:36:41.743Z,26.80
2022-08-23T16:39:14.088Z,26.75
2022-08-23T16:41:41.920Z,26.47
2022-08-23T16:44:09.691Z,26.20
2022-08-23T16:46:41.311Z,26.26
2022-08-23T16:49:11.371Z,25.75
2022-08-23T16:51:39.613Z,25.82
2022-08-23T16:54:10.091Z,25.42
2022-08-23T16:56:40.255Z,25.32
2022-08-23T16:59:10.528Z,25.37
2022-08-23T17:01:57.593Z,25.32
2022-08-23T17:04:30.238Z,24.66
2022-08-23T17:06:59.195Z,24.98
2022-08-23T17:09:29.077Z,24.85
2022-08-23T17:11:58.906Z,24.55
2022-08-23T17:14:27.374Z,24.17
2022-08-23T17:16:55.609Z,24.64
2022-08-23T17:19:23.548Z,24.25
2022-08-23T17:21:51.906Z,24.31
2022-08-23T17:24:19.714Z,24.65
2022-08-23T17:26:47.687Z,24.19
2022-08-23T17:29:15.928Z,23.94
2022-08-23T17:31:46.431Z,23.99
2022-08-23T17:34:14.294Z,23.69
2022-08-23T17:36:51.182Z,23.95
2022-08-23T17:39:22.643Z,23.95
2022-08-23T17:41:51.403Z,23.65
2022-08-23T17:44:20.603Z,23.52
2022-08-23T17:46:49.143Z,23.68
2022-08-23T17:49:18.394Z,23.92
2022-08-23T17:51:46.727Z,24.52
2022-08-23T17:54:15.912Z,24.60
2022-08-23T17:56:50.013Z,23.79
2022-08-23T17:59:20.033Z,23.05
2022-08-23T18:01:49.487Z,23.56
2022-08-23T18:04:17.926Z,22.91
2022-08-23T18:06:46.270Z,23.14
2022-08-23T18:09:14.576Z,23.62
2022-08-23T18:11:42.867Z,23.30
2022-08-23T18:14:11.211Z,23.75
2022-08-23T18:16:39.788Z,22.96
2022-08-23T18:19:11.282Z,23.39
2022-08-23T18:21:42.417Z,23.22
2022-08-23T18:24:11.441Z,23.06
2022-08-23T18:27:16.924Z,22.81
2022-08-23T18:29:51.644Z,22.72
2022-08-23T18:32:19.943Z,22.71
2022-08-23T18:34:47.892Z,22.34
2022-08-23T18:37:22.092Z,22.50
2022-08-23T18:39:50.422Z,22.44
2022-08-23T18:42:18.792Z,22.46
2022-08-23T18:44:46.725Z,22.76
2022-08-23T18:47:15.044Z,22.12
2022-08-23T18:49:43.698Z,22.43
2022-08-23T18:52:11.571Z,22.08
2022-08-23T18:54:39.484Z,21.77
2022-08-23T18:57:07.622Z,21.42
2022-08-23T18:59:46.908Z,21.19
2022-08-23T19:02:15.433Z,21.40
2022-08-23T19:04:43.673Z,21.41
2022-08-23T19:07:11.690Z,21.41
2022-08-23T19:09:40.123Z,21.36
2022-08-23T19:12:08.496Z,21.70
2022-08-23T19:14:36.751Z,21.24
2022-08-23T19:17:08.385Z,21.80
2022-08-23T19:19:36.464Z,21.04
2022-08-23T19:22:05.133Z,20.88
2022-08-23T19:24:33.091Z,20.99
2022-08-23T19:27:00.955Z,21.08
2022-08-23T19:29:29.141Z,21.25
2022-08-23T19:31:57.038Z,21.08
2022-08-23T19:34:24.940Z,21.26
2022-08-23T19:37:00.691Z,21.05
2022-08-23T19:39:30.427Z,20.70
2022-08-23T19:41:58.813Z,20.58
2022-08-23T19:44:28.463Z,20.54
2022-08-23T19:46:56.565Z,20.78
2022-08-23T19:49:24.895Z,20.81
2022-08-23T19:51:55.307Z,20.59
2022-08-23T19:54:23.304Z,20.21
2022-08-23T19:56:58.358Z,20.31
2022-08-23T19:59:32.220Z,20.30
2022-08-23T20:02:00.687Z,20.15
2022-08-23T20:04:31.298Z,19.88
2022-08-23T20:07:00.614Z,20.33
2022-08-23T20:09:31.843Z,20.16
2022-08-23T20:11:59.876Z,19.94
2022-08-23T20:14:31.575Z,19.86
2022-08-23T20:17:00.709Z,20.11
2022-08-23T20:19:28.863Z,19.89
2022-08-23T20:22:16.556Z,19.83
2022-08-23T20:24:51.550Z,19.73
2022-08-23T20:27:25.472Z,19.60
2022-08-23T20:30:03.023Z,20.10
2022-08-23T20:32:31.587Z,19.87
2022-08-23T20:37:46.155Z,19.62
2022-08-23T20:40:14.901Z,19.43
2022-08-23T20:42:42.939Z,19.34
2022-08-23T20:45:10.989Z,19.36
2022-08-23T20:47:41.507Z,18.98
2022-08-23T20:50:09.452Z,19.26
2022-08-23T20:52:37.315Z,19.19
2022-08-23T20:55:06.193Z,19.51
2022-08-23T20:57:39.166Z,19.04
2022-08-23T21:00:08.292Z,19.02
2022-08-23T21:02:36.381Z,19.57
2022-08-23T21:05:06.576Z,19.23
2022-08-23T21:10:20.595Z,19.02
2022-08-23T21:12:49.236Z,19.07
2022-08-23T21:15:17.014Z,18.91
2022-08-23T21:17:47.680Z,19.02
2022-08-23T21:20:16.153Z,18.95
2022-08-23T21:22:43.872Z,18.86
2022-08-23T21:25:11.677Z,18.94
2022-08-23T21:27:39.820Z,18.99
2022-08-23T21:30:09.852Z,18.82
2022-08-23T21:32:37.633Z,18.85
2022-08-23T21:35:05.924Z,18.99
2022-08-23T21:37:35.627Z,18.96
2022-08-23T21:40:04.129Z,18.51
2022-08-23T21:42:32.397Z,18.43
2022-08-23T21:45:00.505Z,18.44
2022-08-23T21:47:30.856Z,18.51
2022-08-23T21:49:59.043Z,18.35
2022-08-23T21:52:26.998Z,18.35
2022-08-23T21:54:54.783Z,18.41
2022-08-23T21:57:22.905Z,18.39
2022-08-23T21:59:50.644Z,18.20
2022-08-23T22:02:19.583Z,18.32
2022-08-23T22:04:48.024Z,18.33
2022-08-23T22:07:15.801Z,18.34
2022-08-23T22:09:43.565Z,18.56
2022-08-23T22:12:11.752Z,18.38
2022-08-23T22:14:41.928Z,18.17
2022-08-23T22:17:09.753Z,17.76
2022-08-23T22:19:37.845Z,18.20
2022-08-23T22:22:06.377Z,17.95
2022-08-23T22:24:34.103Z,17.75
2022-08-23T22:27:02.274Z,17.80
2022-08-23T22:29:30.113Z,17.84
2022-08-23T22:31:58.069Z,17.65
2022-08-23T22:34:26.370Z,17.74
2022-08-23T22:36:55.843Z,17.98
2022-08-23T22:39:23.925Z,18.13
2022-08-23T22:41:52.093Z,17.73
2022-08-23T22:44:19.878Z,17.36
2022-08-23T22:46:48.153Z,17.54
2022-08-23T22:49:16.658Z,17.50
2022-08-23T22:51:44.855Z,17.47
2022-08-23T22:54:13.267Z,17.41
2022-08-23T22:56:49.583Z,17.38
2022-08-23T22:59:20.129Z,17.83
2022-08-23T23:01:52.744Z,17.88
2022-08-23T23:04:23.299Z,17.89
2022-08-23T23:06:52.401Z,18.04
2022-08-23T23:09:20.482Z,17.61
2022-08-23T23:11:48.641Z,17.51
2022-08-23T23:14:19.359Z,17.69
2022-08-23T23:16:49.578Z,17.89
2022-08-23T23:19:37.405Z,17.56
2022-08-23T23:22:07.704Z,17.67
2022-08-23T23:24:38.868Z,17.84
2022-08-23T23:27:07.627Z,17.81
2022-08-23T23:29:36.114Z,17.71
2022-08-23T23:32:04.250Z,17.82
2022-08-23T23:34:32.025Z,17.55
2022-08-23T23:37:00.237Z,17.66
2022-08-23T23:39:28.872Z,17.87
2022-08-23T23:41:57.563Z,17.67
2022-08-23T23:44:31.265Z,17.86
2022-08-23T23:47:01.757Z,17.76
2022-08-23T23:49:33.077Z,17.38
2022-08-23T23:52:05.910Z,17.27
2022-08-23T23:54:34.166Z,17.41
2022-08-23T23:57:03.156Z,17.37
2022-08-23T23:59:31.000Z,17.45
